createdAt,value
2023-02-22T00:01:51.377Z,35.50
2023-02-22T00:04:21.113Z,36.17
2023-02-22T00:06:48.405Z,38.95
2023-02-22T00:09:20.340Z,36.83
2023-02-22T00:11:48.387Z,36.05
2023-02-22T00:14:15.177Z,36.42
2023-02-22T00:16:41.793Z,34.83
2023-02-22T00:19:08.666Z,36.15
2023-02-22T00:21:35.178Z,31.17
2023-02-22T00:24:16.972Z,36.42
2023-02-22T00:26:43.550Z,33.25
2023-02-22T00:29:10.046Z,33.38
2023-02-22T00:31:39.461Z,35.03
2023-02-22T00:34:06.012Z,36.15
2023-02-22T00:36:32.587Z,34.95
2023-02-22T00:38:59.071Z,32.60
2023-02-22T00:41:25.595Z,32.55
2023-02-22T00:43:52.164Z,35.58
2023-02-22T00:46:18.740Z,32.35
2023-02-22T00:48:45.206Z,30.08
2023-02-22T00:51:11.976Z,33.42
2023-02-22T00:53:38.514Z,32.05
2023-02-22T00:56:05.307Z,31.55
2023-02-22T00:58:32.028Z,34.83
2023-02-22T01:00:58.620Z,31.30
2023-02-22T01:03:25.250Z,31.95
2023-02-22T01:05:51.779Z,32.40
2023-02-22T01:08:18.346Z,32.22
2023-02-22T01:10:44.943Z,30.50
2023-02-22T01:13:13.201Z,31.52
2023-02-22T01:15:42.976Z,28.77
2023-02-22T01:18:11.669Z,30.23
2023-02-22T01:20:39.390Z,29.88
2023-02-22T01:23:07.890Z,30.25
2023-02-22T01:25:35.532Z,28.55
2023-02-22T01:28:03.984Z,27.98
2023-02-22T01:30:33.371Z,27.48
2023-02-22T01:33:04.377Z,30.02
2023-02-22T01:35:33.618Z,26.85
2023-02-22T01:38:00.141Z,27.90
2023-02-22T01:40:42.765Z,28.52
2023-02-22T01:43:23.397Z,30.50
2023-02-22T01:46:01.636Z,29.13
2023-02-22T01:48:44.554Z,30.88
2023-02-22T01:51:14.512Z,29.95
2023-02-22T01:53:57.059Z,27.98
2023-02-22T01:56:26.293Z,29.63
2023-02-22T01:59:06.722Z,26.45
2023-02-22T02:01:35.000Z,24.70
2023-02-22T02:04:06.167Z,27.02
2023-02-22T02:06:35.829Z,24.25
2023-02-22T02:09:39.954Z,27.75
2023-02-22T02:12:10.251Z,25.83
2023-02-22T02:14:40.519Z,25.10
2023-02-22T02:17:13.398Z,26.13
2023-02-22T02:20:07.283Z,26.70
2023-02-22T02:22:38.384Z,27.15
2023-02-22T02:25:26.656Z,24.65
2023-02-22T02:28:30.507Z,26.05
2023-02-22T02:31:21.808Z,24.53
2023-02-22T02:33:56.663Z,23.70
2023-02-22T02:36:53.516Z,23.17
2023-02-22T02:39:30.901Z,28.23
2023-02-22T02:42:00.477Z,23.50
2023-02-22T02:44:40.117Z,22.00
2023-02-22T02:47:14.467Z,23.67
2023-02-22T02:49:51.303Z,22.80
2023-02-22T02:52:20.771Z,25.23
2023-02-22T02:54:48.564Z,24.23
2023-02-22T02:57:15.126Z,23.73
2023-02-22T02:59:41.640Z,24.38
2023-02-22T03:02:23.036Z,24.23
2023-02-22T03:05:08.323Z,21.50
2023-02-22T03:08:07.735Z,23.10
2023-02-22T03:10:53.622Z,23.88
2023-02-22T03:13:40.306Z,22.83
2023-02-22T03:16:36.089Z,22.23
2023-02-22T03:19:25.850Z,24.38
2023-02-22T03:22:12.006Z,22.67
2023-02-22T03:24:53.996Z,22.08
2023-02-22T03:27:28.867Z,22.95
2023-02-22T03:30:00.378Z,23.60
2023-02-22T03:32:32.749Z,23.63
2023-02-22T03:35:07.885Z,24.88
2023-02-22T03:37:39.271Z,24.83
2023-02-22T03:40:15.017Z,22.05
2023-02-22T03:42:56.884Z,22.77
2023-02-22T03:45:25.832Z,22.40
2023-02-22T03:48:06.772Z,22.58
2023-02-22T03:50:36.802Z,22.60
2023-02-22T03:53:04.489Z,23.13
2023-02-22T03:55:31.497Z,20.48
2023-02-22T03:58:00.254Z,22.13
2023-02-22T04:00:30.632Z,20.38
2023-02-22T04:02:57.365Z,23.83
2023-02-22T04:05:25.060Z,20.40
2023-02-22T04:07:55.950Z,21.77
2023-02-22T04:10:23.482Z,21.15
2023-02-22T04:12:50.976Z,21.40
2023-02-22T04:15:22.886Z,20.85
2023-02-22T04:17:49.450Z,21.40
2023-02-22T04:20:19.795Z,21.90
2023-02-22T04:22:47.193Z,21.13
2023-02-22T04:25:14.497Z,21.30
2023-02-22T04:27:41.445Z,21.77
2023-02-22T04:30:08.765Z,21.55
2023-02-22T04:32:35.281Z,19.00
2023-02-22T04:35:01.911Z,19.73
2023-02-22T04:37:28.434Z,20.70
2023-02-22T04:39:54.984Z,22.75
2023-02-22T04:42:21.638Z,21.55
2023-02-22T04:44:48.147Z,21.67
2023-02-22T04:47:14.872Z,21.05
2023-02-22T04:49:41.403Z,21.60
2023-02-22T04:52:07.994Z,20.67
2023-02-22T04:54:34.514Z,24.02
2023-02-22T04:57:01.009Z,23.40
2023-02-22T04:59:27.585Z,20.35
2023-02-22T05:01:54.232Z,20.23
2023-02-22T05:04:21.766Z,24.70
2023-02-22T05:06:48.614Z,23.67
2023-02-22T05:09:15.220Z,20.02
2023-02-22T05:11:41.801Z,20.45
2023-02-22T05:14:08.317Z,22.30
2023-02-22T05:16:35.887Z,24.15
2023-02-22T05:19:02.501Z,25.27
2023-02-22T05:21:29.022Z,26.60
2023-02-22T05:23:55.522Z,24.30
2023-02-22T05:26:22.029Z,26.33
2023-02-22T05:28:48.555Z,27.83
2023-02-22T05:31:15.603Z,31.30
2023-02-22T05:33:42.272Z,31.65
2023-02-22T05:36:09.340Z,28.55
2023-02-22T05:38:43.213Z,30.63
2023-02-22T05:41:11.937Z,29.38
2023-02-22T05:43:39.478Z,31.77
2023-02-22T05:46:06.375Z,30.42
2023-02-22T05:48:32.956Z,29.27
2023-02-22T05:50:59.514Z,31.75
2023-02-22T05:53:26.341Z,32.40
2023-02-22T05:55:52.892Z,33.17
2023-02-22T05:58:19.400Z,32.63
2023-02-22T06:00:45.946Z,31.65
2023-02-22T06:03:12.711Z,29.63
2023-02-22T06:05:39.790Z,33.60
2023-02-22T06:08:07.518Z,29.58
2023-02-22T06:10:34.043Z,29.50
2023-02-22T06:13:02.109Z,31.33
2023-02-22T06:15:29.570Z,31.13
2023-02-22T06:17:57.888Z,33.88
2023-02-22T06:20:26.123Z,34.95
2023-02-22T06:22:55.008Z,28.48
2023-02-22T06:25:26.356Z,29.83
2023-02-22T06:27:53.190Z,30.63
2023-02-22T06:30:22.173Z,28.92
2023-02-22T06:32:49.025Z,34.97
2023-02-22T06:35:16.614Z,28.83
2023-02-22T06:37:43.222Z,27.08
2023-02-22T06:40:11.223Z,27.42
2023-02-22T06:42:39.018Z,28.25
2023-02-22T06:45:06.022Z,27.92
2023-02-22T06:47:32.558Z,25.95
2023-02-22T06:50:00.944Z,26.13
2023-02-22T06:52:27.508Z,25.20
2023-02-22T06:54:54.061Z,28.88
2023-02-22T06:57:20.617Z,25.77
2023-02-22T06:59:47.128Z,28.38
2023-02-22T07:02:14.744Z,27.42
2023-02-22T07:04:43.425Z,27.17
2023-02-22T07:07:10.195Z,24.88
2023-02-22T07:09:36.740Z,25.27
2023-02-22T07:12:03.589Z,23.45
2023-02-22T07:14:30.088Z,27.08
2023-02-22T07:16:56.573Z,28.77
2023-02-22T07:19:24.654Z,26.50
2023-02-22T07:21:55.333Z,24.50
2023-02-22T07:24:21.916Z,22.08
2023-02-22T07:26:48.455Z,22.70
2023-02-22T07:29:14.987Z,22.50
2023-02-22T07:31:41.511Z,22.27
2023-02-22T07:34:08.115Z,22.58
2023-02-22T07:36:34.878Z,24.23
2023-02-22T07:39:01.464Z,23.00
2023-02-22T07:41:28.039Z,22.25
2023-02-22T07:43:54.529Z,20.92
2023-02-22T07:46:21.207Z,22.67
2023-02-22T07:48:47.729Z,22.08
2023-02-22T07:51:16.836Z,21.77
2023-02-22T07:53:43.541Z,21.45
2023-02-22T07:56:10.319Z,22.15
2023-02-22T07:58:36.931Z,21.55
2023-02-22T08:01:04.022Z,21.05
2023-02-22T08:03:36.594Z,21.90
2023-02-22T08:06:04.996Z,23.70
2023-02-22T08:08:31.726Z,19.98
2023-02-22T08:10:58.307Z,21.40
2023-02-22T08:13:24.971Z,19.58
2023-02-22T08:15:53.809Z,21.33
2023-02-22T08:18:22.281Z,37.47
2023-02-22T08:20:50.198Z,29.80
2023-02-22T08:23:18.690Z,42.22
2023-02-22T08:25:45.361Z,48.88
2023-02-22T08:28:15.117Z,52.00
2023-02-22T08:30:45.221Z,53.08
2023-02-22T08:33:19.393Z,57.72
2023-02-22T08:35:51.702Z,41.90
2023-02-22T08:38:27.725Z,40.28
2023-02-22T08:40:54.257Z,45.80
2023-02-22T08:43:22.003Z,40.67
2023-02-22T08:45:49.536Z,39.60
2023-02-22T08:48:16.857Z,45.65
2023-02-22T08:50:44.346Z,43.88
2023-02-22T08:53:13.671Z,43.97
2023-02-22T08:55:41.784Z,39.42
2023-02-22T08:58:09.387Z,35.58
2023-02-22T09:00:38.809Z,46.38
2023-02-22T09:03:08.392Z,31.60
2023-02-22T09:05:34.985Z,35.92
2023-02-22T09:08:02.858Z,27.05
2023-02-22T09:10:31.564Z,38.88
2023-02-22T09:13:00.538Z,34.30
2023-02-22T09:15:27.835Z,34.60
2023-02-22T09:17:54.474Z,31.45
2023-02-22T09:20:23.510Z,33.53
2023-02-22T09:22:50.814Z,32.13
2023-02-22T09:25:20.498Z,34.03
2023-02-22T09:27:49.128Z,32.28
2023-02-22T09:30:23.636Z,28.67
2023-02-22T09:32:56.666Z,26.83
2023-02-22T09:35:29.965Z,27.87
2023-02-22T09:37:58.351Z,26.17
2023-02-22T09:40:29.654Z,28.15
2023-02-22T09:43:17.402Z,27.05
2023-02-22T09:46:19.135Z,21.42
2023-02-22T09:48:58.014Z,23.83
2023-02-22T09:51:28.953Z,25.02
2023-02-22T09:54:01.237Z,26.90
2023-02-22T09:56:29.720Z,22.83
2023-02-22T09:59:01.740Z,22.80
2023-02-22T10:01:43.356Z,22.58
2023-02-22T10:04:23.512Z,22.08
2023-02-22T10:07:06.288Z,24.40
2023-02-22T10:09:41.118Z,21.98
2023-02-22T10:12:18.632Z,22.63
2023-02-22T10:15:07.537Z,19.73
2023-02-22T10:18:03.543Z,24.25
2023-02-22T10:20:53.191Z,22.15
2023-02-22T10:23:28.845Z,19.92
2023-02-22T10:26:04.330Z,21.20
2023-02-22T10:28:46.437Z,19.77
2023-02-22T10:31:23.207Z,20.38
2023-02-22T10:33:57.083Z,17.85
2023-02-22T10:38:58.627Z,18.48
2023-02-22T10:41:34.207Z,19.75
2023-02-22T10:44:02.378Z,18.95
2023-02-22T10:46:31.189Z,18.23
2023-02-22T10:49:04.481Z,17.95
2023-02-22T10:51:30.999Z,15.85
2023-02-22T10:54:24.155Z,18.40
2023-02-22T10:56:53.877Z,22.20
2023-02-22T10:59:28.989Z,17.08
2023-02-22T11:01:56.120Z,17.10
2023-02-22T11:04:24.931Z,19.42
2023-02-22T11:07:10.350Z,22.10
2023-02-22T11:09:50.151Z,18.83
2023-02-22T11:12:20.449Z,24.05
2023-02-22T11:14:47.357Z,17.25
2023-02-22T11:17:19.522Z,17.77
2023-02-22T11:19:48.714Z,15.18
2023-02-22T11:22:25.708Z,16.58
2023-02-22T11:25:01.383Z,17.13
2023-02-22T11:27:33.858Z,17.85
2023-02-22T11:30:20.720Z,15.63
2023-02-22T11:33:14.155Z,17.60
2023-02-22T11:35:52.723Z,15.85
2023-02-22T11:38:28.346Z,16.88
2023-02-22T11:41:06.613Z,16.70
2023-02-22T11:43:33.560Z,16.33
2023-02-22T11:46:06.330Z,17.52
2023-02-22T11:48:36.788Z,16.37
2023-02-22T11:51:14.302Z,16.80
2023-02-22T11:54:03.739Z,15.00
2023-02-22T11:56:43.046Z,16.35
2023-02-22T11:59:21.608Z,15.43
2023-02-22T12:01:56.822Z,16.40
2023-02-22T12:04:33.414Z,16.00
2023-02-22T12:07:37.213Z,17.48
2023-02-22T12:10:22.832Z,17.47
2023-02-22T12:13:06.417Z,14.40
2023-02-22T12:16:29.489Z,13.48
2023-02-22T12:19:11.555Z,16.33
2023-02-22T12:21:42.645Z,15.70
2023-02-22T12:24:16.633Z,16.13
2023-02-22T12:26:51.299Z,13.35
2023-02-22T12:29:33.520Z,14.07
2023-02-22T12:32:10.964Z,15.02
2023-02-22T12:34:59.616Z,15.85
2023-02-22T12:37:39.356Z,13.57
2023-02-22T12:40:26.931Z,13.95
2023-02-22T12:42:56.187Z,15.30
2023-02-22T12:45:22.630Z,18.42
2023-02-22T12:48:01.092Z,18.10
2023-02-22T12:50:34.450Z,14.10
2023-02-22T12:53:19.858Z,16.13
2023-02-22T12:55:51.639Z,14.27
2023-02-22T12:58:31.337Z,13.20
2023-02-22T13:01:10.364Z,13.85
2023-02-22T13:03:42.732Z,14.00
2023-02-22T13:06:27.678Z,14.07
2023-02-22T13:09:15.613Z,14.20
2023-02-22T13:11:51.238Z,13.15
2023-02-22T13:14:42.501Z,13.25
2023-02-22T13:17:21.367Z,12.90
2023-02-22T13:19:50.781Z,12.48
2023-02-22T13:22:26.628Z,12.60
2023-02-22T13:25:09.272Z,12.63
2023-02-22T13:27:58.505Z,14.32
2023-02-22T13:30:40.695Z,12.02
2023-02-22T13:33:24.305Z,11.70
2023-02-22T13:36:02.764Z,13.70
2023-02-22T13:38:56.867Z,11.68
2023-02-22T13:41:40.588Z,11.32
2023-02-22T13:44:43.553Z,13.13
2023-02-22T13:47:40.778Z,11.85
2023-02-22T13:50:53.418Z,10.73
2023-02-22T13:53:47.035Z,11.88
2023-02-22T13:56:15.186Z,13.70
2023-02-22T13:58:52.203Z,12.82
2023-02-22T14:01:42.788Z,11.98
2023-02-22T14:04:28.781Z,11.23
2023-02-22T14:07:04.058Z,11.48
2023-02-22T14:09:49.088Z,11.00
2023-02-22T14:12:30.931Z,11.02
2023-02-22T14:15:29.842Z,10.98
2023-02-22T14:17:56.742Z,12.18
2023-02-22T14:20:31.369Z,10.95
2023-02-22T14:23:23.158Z,11.63
2023-02-22T14:25:50.738Z,11.50
2023-02-22T14:31:33.217Z,12.15
2023-02-22T14:34:11.136Z,11.45
2023-02-22T14:36:52.672Z,10.90
2023-02-22T14:39:32.792Z,8.95
2023-02-22T14:42:28.675Z,11.00
2023-02-22T14:45:03.201Z,10.73
2023-02-22T14:47:39.900Z,9.85
2023-02-22T14:50:17.792Z,10.40
2023-02-22T14:52:48.681Z,10.25
2023-02-22T14:58:10.667Z,12.48
2023-02-22T15:00:42.027Z,11.88
2023-02-22T15:03:24.242Z,11.05
2023-02-22T15:05:50.790Z,9.23
2023-02-22T15:08:18.804Z,9.93
2023-02-22T15:10:47.624Z,9.45
2023-02-22T15:13:20.721Z,14.90
2023-02-22T15:15:50.006Z,26.65
2023-02-22T15:18:39.835Z,38.90
2023-02-22T15:21:16.270Z,43.88
2023-02-22T15:23:49.662Z,47.30
2023-02-22T15:26:51.876Z,50.88
2023-02-22T15:29:26.379Z,45.72
2023-02-22T15:31:56.376Z,42.90
2023-02-22T15:34:31.722Z,40.53
2023-02-22T15:37:19.924Z,41.00
2023-02-22T15:39:46.445Z,46.45
2023-02-22T15:42:23.054Z,39.90
2023-02-22T15:44:53.796Z,36.38
2023-02-22T15:47:27.342Z,41.15
2023-02-22T15:50:15.381Z,32.28
2023-02-22T15:52:53.240Z,36.38
2023-02-22T15:57:52.744Z,41.17
2023-02-22T16:00:36.305Z,37.92
2023-02-22T16:03:06.504Z,37.03
2023-02-22T16:05:43.665Z,41.95
2023-02-22T16:08:20.867Z,35.60
2023-02-22T16:10:58.582Z,31.17
2023-02-22T16:13:32.740Z,31.45
2023-02-22T16:16:06.225Z,30.70
2023-02-22T16:18:36.121Z,29.45
2023-02-22T16:21:15.403Z,33.83
2023-02-22T16:23:51.096Z,32.65
2023-02-22T16:26:25.319Z,29.83
2023-02-22T16:28:56.627Z,32.10
2023-02-22T16:31:26.491Z,26.20
2023-02-22T16:33:54.111Z,25.77
2023-02-22T16:36:24.665Z,24.95
2023-02-22T16:38:51.612Z,26.13
2023-02-22T16:41:20.059Z,30.40
2023-02-22T16:43:50.818Z,27.58
2023-02-22T16:46:19.618Z,26.75
2023-02-22T16:48:46.769Z,23.80
2023-02-22T16:51:16.838Z,28.63
2023-02-22T16:53:44.587Z,24.65
2023-02-22T16:56:16.120Z,27.05
2023-02-22T16:58:44.191Z,26.38
2023-02-22T17:01:12.622Z,26.08
2023-02-22T17:03:39.553Z,26.38
2023-02-22T17:06:06.479Z,23.50
2023-02-22T17:08:33.272Z,23.33
2023-02-22T17:11:00.651Z,27.10
2023-02-22T17:13:27.984Z,20.45
2023-02-22T17:15:55.644Z,26.98
2023-02-22T17:18:23.547Z,21.40
2023-02-22T17:20:51.367Z,23.95
2023-02-22T17:23:19.022Z,24.50
2023-02-22T17:25:53.465Z,25.38
2023-02-22T17:28:21.649Z,26.55
2023-02-22T17:30:49.008Z,23.92
2023-02-22T17:33:19.345Z,27.73
2023-02-22T17:35:47.037Z,35.58
2023-02-22T17:38:18.490Z,32.15
2023-02-22T17:40:51.944Z,37.92
2023-02-22T17:43:19.451Z,35.88
2023-02-22T17:45:46.680Z,30.73
2023-02-22T17:48:14.907Z,32.60
2023-02-22T17:50:43.607Z,34.00
2023-02-22T17:53:11.270Z,29.63
2023-02-22T17:55:40.593Z,33.05
2023-02-22T17:58:08.270Z,34.58
2023-02-22T18:00:37.192Z,32.15
2023-02-22T18:03:07.815Z,31.02
2023-02-22T18:05:41.046Z,29.15
2023-02-22T18:08:07.665Z,30.20
2023-02-22T18:10:34.450Z,32.00
2023-02-22T18:13:02.262Z,30.38
2023-02-22T18:15:30.000Z,29.33
2023-02-22T18:17:56.995Z,37.10
2023-02-22T18:20:31.147Z,32.53
2023-02-22T18:22:59.162Z,27.58
2023-02-22T18:25:26.794Z,29.63
2023-02-22T18:27:54.968Z,28.98
2023-02-22T18:30:21.944Z,34.20
2023-02-22T18:32:48.487Z,32.00
2023-02-22T18:35:16.212Z,33.03
2023-02-22T18:37:44.426Z,36.05
2023-02-22T18:40:11.128Z,40.22
2023-02-22T18:42:39.608Z,38.28
2023-02-22T18:45:07.518Z,42.00
2023-02-22T18:47:45.611Z,44.22
2023-02-22T18:50:13.353Z,38.42
2023-02-22T18:52:48.617Z,47.00
2023-02-22T18:55:17.561Z,40.67
2023-02-22T18:57:45.377Z,45.42
2023-02-22T19:00:15.267Z,48.25
2023-02-22T19:02:44.669Z,41.10
2023-02-22T19:05:12.565Z,42.22
2023-02-22T19:07:39.654Z,38.97
2023-02-22T19:10:07.556Z,46.25
2023-02-22T19:12:34.252Z,43.47
2023-02-22T19:15:01.290Z,42.15
2023-02-22T19:17:29.041Z,44.58
2023-02-22T19:19:55.852Z,40.05
2023-02-22T19:22:25.939Z,43.40
2023-02-22T19:24:54.176Z,42.10
2023-02-22T19:27:21.703Z,42.83
2023-02-22T19:29:49.415Z,37.35
2023-02-22T19:32:17.309Z,37.00
2023-02-22T19:34:44.462Z,36.17
2023-02-22T19:37:12.958Z,38.28
2023-02-22T19:39:41.799Z,34.88
2023-02-22T19:42:10.045Z,38.72
2023-02-22T19:44:37.166Z,36.60
2023-02-22T19:47:08.861Z,35.03
2023-02-22T19:49:37.584Z,34.90
2023-02-22T19:52:06.493Z,37.08
2023-02-22T19:54:33.707Z,34.17
2023-02-22T19:57:00.580Z,36.88
2023-02-22T19:59:27.400Z,34.58
2023-02-22T20:01:54.878Z,35.38
2023-02-22T20:04:22.821Z,34.05
2023-02-22T20:06:54.190Z,33.45
2023-02-22T20:09:23.719Z,37.00
2023-02-22T20:11:53.923Z,36.13
2023-02-22T20:14:24.649Z,38.85
2023-02-22T20:16:52.858Z,36.72
2023-02-22T20:19:19.657Z,37.28
2023-02-22T20:21:46.281Z,38.03
2023-02-22T20:24:15.085Z,40.42
2023-02-22T20:26:43.359Z,41.13
2023-02-22T20:29:10.852Z,43.63
2023-02-22T20:31:39.319Z,42.25
2023-02-22T20:34:09.749Z,40.85
2023-02-22T20:36:41.364Z,42.10
2023-02-22T20:39:13.708Z,40.42
2023-02-22T20:41:42.665Z,41.92
2023-02-22T20:44:12.298Z,40.63
2023-02-22T20:46:39.766Z,48.47
2023-02-22T20:49:08.872Z,42.70
2023-02-22T20:51:36.843Z,43.28
2023-02-22T20:54:03.610Z,44.97
2023-02-22T20:56:31.979Z,42.60
2023-02-22T20:59:00.671Z,44.35
2023-02-22T21:01:27.773Z,47.80
2023-02-22T21:03:54.350Z,46.58
2023-02-22T21:06:22.140Z,45.40
2023-02-22T21:08:54.311Z,47.33
2023-02-22T21:11:23.118Z,48.50
2023-02-22T21:13:50.941Z,48.95
2023-02-22T21:16:21.061Z,46.97
2023-02-22T21:18:50.678Z,47.45
2023-02-22T21:21:17.760Z,44.70
2023-02-22T21:23:50.120Z,49.83
2023-02-22T21:26:19.719Z,43.08
2023-02-22T21:28:51.176Z,43.45
2023-02-22T21:31:20.328Z,43.42
2023-02-22T21:33:50.432Z,48.67
2023-02-22T21:36:17.324Z,47.75
2023-02-22T21:38:46.110Z,43.63
2023-02-22T21:41:15.276Z,43.88
2023-02-22T21:43:43.444Z,43.80
2023-02-22T21:46:10.999Z,52.65
2023-02-22T21:48:38.884Z,45.55
2023-02-22T21:51:10.691Z,47.80
2023-02-22T21:53:37.175Z,42.25
2023-02-22T21:56:05.827Z,44.15
2023-02-22T21:58:32.354Z,44.95
2023-02-22T22:01:05.809Z,41.47
2023-02-22T22:03:33.004Z,43.15
2023-02-22T22:06:00.288Z,38.88
2023-02-22T22:08:28.020Z,37.65
2023-02-22T22:10:55.283Z,37.58
2023-02-22T22:13:22.664Z,38.72
2023-02-22T22:15:49.874Z,36.60
2023-02-22T22:18:16.443Z,36.65
2023-02-22T22:20:44.702Z,37.55
2023-02-22T22:23:11.412Z,39.15
2023-02-22T22:25:38.275Z,38.47
2023-02-22T22:28:11.271Z,35.72
2023-02-22T22:30:38.219Z,37.90
2023-02-22T22:33:11.440Z,36.38
2023-02-22T22:35:41.866Z,37.88
2023-02-22T22:38:09.457Z,35.95
2023-02-22T22:40:38.785Z,34.75
2023-02-22T22:43:06.062Z,33.85
2023-02-22T22:45:32.898Z,33.50
2023-02-22T22:47:59.422Z,31.05
2023-02-22T22:50:26.557Z,30.42
2023-02-22T22:52:55.645Z,34.15
2023-02-22T22:55:24.251Z,32.10
2023-02-22T22:57:52.080Z,33.88
2023-02-22T23:00:39.300Z,32.80
2023-02-22T23:03:09.037Z,33.38
2023-02-22T23:05:42.231Z,30.67
2023-02-22T23:08:10.986Z,28.38
2023-02-22T23:10:39.322Z,31.48
2023-02-22T23:13:09.945Z,28.00
2023-02-22T23:15:43.511Z,29.90
2023-02-22T23:18:10.356Z,31.08
2023-02-22T23:20:38.955Z,27.77
2023-02-22T23:23:06.041Z,29.40
2023-02-22T23:25:38.217Z,27.25
2023-02-22T23:28:04.787Z,29.25
2023-02-22T23:30:31.311Z,30.65
2023-02-22T23:33:01.181Z,28.33
2023-02-22T23:35:27.819Z,28.65
2023-02-22T23:37:57.795Z,26.92
2023-02-22T23:40:25.926Z,24.88
2023-02-22T23:42:56.380Z,26.90
2023-02-22T23:45:24.126Z,29.00
2023-02-22T23:48:01.659Z,29.20
2023-02-22T23:50:30.435Z,25.80
2023-02-22T23:53:00.190Z,27.75
2023-02-22T23:55:31.402Z,26.27
2023-02-22T23:57:59.685Z,25.52
